createdAt,value
2017-05-22T00:00:05.632Z,91.83
2017-05-22T00:01:14.524Z,92.5
2017-05-22T00:02:23.570Z,91.83
2017-05-22T00:03:32.790Z,92.79
2017-05-22T00:04:42.006Z,93.17
2017-05-22T00:05:51.224Z,92.79
2017-05-22T00:07:00.451Z,92.97
2017-05-22T00:08:10.101Z,92.97
2017-05-22T00:09:19.317Z,93.17
2017-05-22T00:10:28.208Z,93.07
2017-05-22T00:11:37.424Z,93.26
2017-05-22T00:12:46.316Z,93.17
2017-05-22T00:13:56.170Z,93.84
2017-05-22T00:15:05.392Z,94.31
2017-05-22T00:16:14.605Z,93.46
2017-05-22T00:17:23.823Z,94.12
2017-05-22T00:18:32.721Z,94.12
2017-05-22T00:19:42.290Z,94.03
2017-05-22T00:20:52.159Z,93.74
2017-05-22T00:22:01.382Z,94.31
2017-05-22T00:23:10.273Z,94.31
2017-05-22T00:24:19.494Z,93.79
2017-05-22T00:25:29.464Z,94.03
2017-05-22T00:26:39.000Z,94.31
2017-05-22T00:27:47.893Z,94.03
2017-05-22T00:28:57.106Z,94.17
2017-05-22T00:30:06.003Z,94.12
2017-05-22T00:31:15.430Z,94.12
2017-05-22T00:32:24.644Z,95.12
2017-05-22T00:33:33.864Z,94.74
2017-05-22T00:34:43.087Z,94.93
2017-05-22T00:35:51.980Z,94.84
2017-05-22T00:37:00.977Z,95.12
2017-05-22T00:38:10.528Z,95.22
2017-05-22T00:39:19.742Z,95.03
2017-05-22T00:40:29.614Z,95.03
2017-05-22T00:41:38.837Z,94.84
2017-05-22T00:42:48.478Z,95.32
2017-05-22T00:43:58.021Z,96.17
2017-05-22T00:45:07.245Z,95.32
2017-05-22T00:46:16.136Z,95.7
2017-05-22T00:47:25.413Z,95.61
2017-05-22T00:48:34.638Z,95.41
2017-05-22T00:49:43.538Z,95.03
2017-05-22T00:50:52.757Z,95.89
2017-05-22T00:52:01.969Z,95.7
2017-05-22T00:53:10.862Z,95.7
2017-05-22T00:54:19.904Z,95.89
2017-05-22T00:55:29.120Z,95.61
2017-05-22T00:56:38.010Z,95.03
2017-05-22T00:57:48.207Z,95.7
2017-05-22T00:58:57.755Z,96.17
2017-05-22T01:00:07.448Z,95.41
2017-05-22T01:01:16.668Z,95.12
2017-05-22T01:02:26.209Z,95.22
2017-05-22T01:03:35.433Z,95.41
2017-05-22T01:04:44.973Z,95.79
2017-05-22T01:05:53.966Z,95.51
2017-05-22T01:07:03.183Z,95.79
2017-05-22T01:08:12.072Z,95.7
2017-05-22T01:09:21.286Z,95.7
2017-05-22T01:10:30.833Z,96.75
2017-05-22T01:11:39.721Z,96.56
2017-05-22T01:12:49.266Z,96.37
2017-05-22T01:13:58.208Z,96.7
2017-05-22T01:15:07.426Z,96.61
2017-05-22T01:16:16.318Z,97.17
2017-05-22T01:17:25.407Z,96.61
2017-05-22T01:18:34.297Z,96.61
2017-05-22T01:19:43.193Z,96.98
2017-05-22T01:20:52.085Z,96.51
2017-05-22T01:22:00.979Z,96.7
2017-05-22T01:23:09.923Z,96.51
2017-05-22T01:24:19.144Z,96.61
2017-05-22T01:25:28.737Z,96.7
2017-05-22T01:26:37.949Z,96.7
2017-05-22T01:27:46.844Z,96.61
2017-05-22T01:28:57.191Z,96.7
2017-05-22T01:30:06.092Z,97.08
2017-05-22T01:31:15.312Z,96.98
2017-05-22T01:32:24.214Z,96.89
2017-05-22T01:33:33.108Z,96.7
2017-05-22T01:34:42.710Z,96.89
2017-05-22T01:35:52.251Z,97.46
2017-05-22T01:37:01.793Z,97.37
2017-05-22T01:38:11.344Z,98.42
2017-05-22T01:39:20.888Z,98.03
2017-05-22T01:40:30.432Z,97.27
2017-05-22T01:41:39.327Z,97.46
2017-05-22T01:42:48.547Z,97.85
2017-05-22T01:43:58.093Z,98.13
2017-05-22T01:45:06.984Z,97.56
2017-05-22T01:46:16.687Z,98.32
2017-05-22T01:47:25.907Z,97.56
2017-05-22T01:48:35.130Z,98.51
2017-05-22T01:49:44.348Z,97.56
2017-05-22T01:50:53.570Z,97.56
2017-05-22T01:52:03.259Z,97.27
2017-05-22T01:53:13.124Z,97.56
2017-05-22T01:54:22.339Z,98.42
2017-05-22T01:55:31.232Z,97.7
2017-05-22T01:56:40.450Z,99.18
2017-05-22T01:57:49.493Z,97.99
2017-05-22T01:58:59.038Z,97.94
2017-05-22T02:00:08.252Z,98.42
2017-05-22T02:01:17.144Z,98.18
2017-05-22T02:02:26.036Z,98.03
2017-05-22T02:03:35.730Z,97.99
2017-05-22T02:04:44.943Z,98.51
2017-05-22T02:05:54.160Z,98.56
2017-05-22T02:07:03.056Z,99.18
2017-05-22T02:08:12.277Z,99.89
2017-05-22T02:09:22.296Z,99.99
2017-05-22T02:10:31.837Z,99.6
2017-05-22T02:11:40.737Z,99.41
2017-05-22T02:12:49.635Z,99.6
2017-05-22T02:13:58.858Z,99.41
2017-05-22T02:15:07.904Z,99.32
2017-05-22T02:16:17.120Z,99.8
2017-05-22T02:17:26.337Z,99.8
2017-05-22T02:18:35.876Z,99.99
2017-05-22T02:19:45.097Z,99.99
2017-05-22T02:20:55.117Z,99.99
2017-05-22T02:22:04.655Z,99.99
2017-05-22T02:23:13.548Z,99.99
2017-05-22T02:24:22.767Z,99.99
2017-05-22T02:25:31.657Z,99.99
2017-05-22T02:26:40.546Z,99.99
2017-05-22T02:27:49.494Z,99.99
2017-05-22T02:28:59.368Z,99.99
2017-05-22T02:30:08.913Z,99.99
2017-05-22T02:31:18.131Z,99.99
2017-05-22T02:32:27.124Z,99.99
2017-05-22T02:33:36.667Z,99.99
2017-05-22T02:34:45.886Z,99.99
2017-05-22T02:35:55.099Z,99.99
2017-05-22T02:37:04.314Z,99.99
2017-05-22T02:38:13.678Z,99.99
2017-05-22T02:39:22.569Z,99.99
2017-05-22T02:40:31.462Z,99.99
2017-05-22T02:41:40.673Z,99.99
2017-05-22T02:42:49.900Z,99.99
2017-05-22T02:43:59.876Z,99.99
2017-05-22T02:45:09.091Z,99.99
2017-05-22T02:46:18.641Z,99.99
2017-05-22T02:47:27.861Z,99.99
2017-05-22T02:48:37.401Z,99.99
2017-05-22T02:49:46.817Z,99.99
2017-05-22T02:50:55.709Z,99.99
2017-05-22T02:52:05.256Z,99.99
2017-05-22T02:53:14.472Z,99.99
2017-05-22T02:54:24.010Z,99.99
2017-05-22T02:55:33.853Z,99.99
2017-05-22T02:56:42.745Z,99.99
2017-05-22T02:57:51.643Z,99.99
2017-05-22T02:59:01.511Z,99.99
2017-05-22T03:00:10.404Z,99.99
2017-05-22T03:01:19.447Z,99.99
2017-05-22T03:02:28.337Z,99.99
2017-05-22T03:03:37.881Z,99.99
2017-05-22T03:04:47.428Z,99.99
2017-05-22T03:05:56.647Z,99.99
2017-05-22T03:07:06.166Z,99.99
2017-05-22T03:08:15.386Z,99.99
2017-05-22T03:09:24.940Z,99.99
2017-05-22T03:10:34.161Z,99.99
2017-05-22T03:11:43.384Z,99.99
2017-05-22T03:12:52.714Z,99.99
2017-05-22T03:14:02.258Z,99.99
2017-05-22T03:15:11.150Z,99.99
2017-05-22T03:16:20.042Z,99.99
2017-05-22T03:17:29.257Z,99.99
2017-05-22T03:18:38.675Z,99.99
2017-05-22T03:19:48.879Z,99.99
2017-05-22T03:20:58.100Z,99.99
2017-05-22T03:22:07.644Z,99.99
2017-05-22T03:23:16.534Z,99.99
2017-05-22T03:24:25.677Z,99.99
2017-05-22T03:25:34.898Z,99.99
2017-05-22T03:26:44.434Z,99.99
2017-05-22T03:27:53.976Z,99.99
2017-05-22T03:29:03.194Z,99.99
2017-05-22T03:30:12.881Z,99.99
2017-05-22T03:31:22.097Z,99.99
2017-05-22T03:32:30.986Z,99.99
2017-05-22T03:33:40.534Z,99.99
2017-05-22T03:34:49.755Z,99.99
2017-05-22T03:35:59.458Z,99.99
2017-05-22T03:37:08.355Z,99.99
2017-05-22T03:38:17.569Z,99.99
2017-05-22T03:39:27.112Z,99.99
2017-05-22T03:40:36.330Z,99.99
2017-05-22T03:41:45.218Z,99.99
2017-05-22T03:42:54.767Z,99.99
2017-05-22T03:44:04.636Z,99.99
2017-05-22T03:45:13.855Z,99.99
2017-05-22T03:46:22.748Z,99.99
2017-05-22T03:47:32.309Z,99.99
2017-05-22T03:48:41.215Z,99.99
2017-05-22T03:49:50.762Z,99.99
2017-05-22T03:50:59.980Z,99.99
2017-05-22T03:52:08.877Z,99.99
2017-05-22T03:53:18.142Z,99.99
2017-05-22T03:54:27.033Z,99.99
2017-05-22T03:55:35.926Z,99.99
2017-05-22T03:56:45.143Z,99.99
2017-05-22T03:57:54.359Z,99.99
2017-05-22T03:59:03.651Z,99.99
2017-05-22T04:00:13.198Z,99.99
2017-05-22T04:01:22.798Z,99.99
2017-05-22T04:02:31.691Z,99.99
2017-05-22T04:03:40.914Z,99.99
2017-05-22T04:04:50.935Z,99.99
2017-05-22T04:06:00.483Z,99.99
2017-05-22T04:07:09.703Z,99.99
2017-05-22T04:08:18.915Z,99.99
2017-05-22T04:09:28.127Z,99.99
2017-05-22T04:10:37.494Z,99.99
2017-05-22T04:11:46.712Z,99.99
2017-05-22T04:12:55.604Z,99.99
2017-05-22T04:14:04.828Z,99.99
2017-05-22T04:15:13.725Z,99.99
2017-05-22T04:16:23.089Z,99.99
2017-05-22T04:17:31.982Z,99.99
2017-05-22T04:18:40.875Z,99.99
2017-05-22T04:19:50.091Z,99.99
2017-05-22T04:20:58.981Z,99.99
2017-05-22T04:22:08.225Z,99.99
2017-05-22T04:23:17.116Z,99.99
2017-05-22T04:24:26.005Z,99.99
2017-05-22T04:25:35.546Z,99.99
2017-05-22T04:26:45.088Z,99.99
2017-05-22T04:27:54.431Z,99.99
2017-05-22T04:29:03.653Z,99.99
2017-05-22T04:30:13.521Z,99.99
2017-05-22T04:31:22.410Z,99.99
2017-05-22T04:32:31.305Z,99.99
2017-05-22T04:33:41.469Z,99.99
2017-05-22T04:34:50.687Z,99.99
2017-05-22T04:36:00.234Z,99.99
2017-05-22T04:37:10.106Z,99.99
2017-05-22T04:38:19.323Z,99.99
2017-05-22T04:39:29.389Z,99.99
2017-05-22T04:40:39.249Z,99.99
2017-05-22T04:41:48.466Z,99.99
2017-05-22T04:42:57.680Z,99.99
2017-05-22T04:44:06.896Z,99.99
2017-05-22T04:45:15.989Z,99.99
2017-05-22T04:46:24.916Z,99.99
2017-05-22T04:47:34.130Z,99.99
2017-05-22T04:48:44.323Z,99.99
2017-05-22T04:49:53.540Z,99.99
2017-05-22T04:51:02.813Z,99.99
2017-05-22T04:52:12.033Z,99.99
2017-05-22T04:53:20.923Z,99.99
2017-05-22T04:54:30.465Z,99.99
2017-05-22T04:55:40.006Z,99.99
2017-05-22T04:56:49.220Z,99.99
2017-05-22T04:57:58.116Z,99.99
2017-05-22T04:59:07.328Z,99.99
2017-05-22T05:00:16.545Z,99.99
2017-05-22T05:01:25.435Z,99.99
2017-05-22T05:02:34.376Z,99.99
2017-05-22T05:03:43.921Z,99.99
2017-05-22T05:04:53.138Z,99.99
2017-05-22T05:06:02.680Z,99.99
2017-05-22T05:07:11.573Z,99.99
2017-05-22T05:08:20.515Z,99.99
2017-05-22T05:09:29.407Z,99.99
2017-05-22T05:10:38.299Z,99.99
2017-05-22T05:11:48.165Z,99.99
2017-05-22T05:12:57.386Z,99.99
2017-05-22T05:14:07.039Z,99.99
2017-05-22T05:15:15.931Z,99.75
2017-05-22T05:16:24.833Z,98.13
2017-05-22T05:17:34.050Z,98.47
2017-05-22T05:18:43.919Z,98.27
2017-05-22T05:19:53.469Z,98.08
2017-05-22T05:21:02.691Z,97.13
2017-05-22T05:22:11.910Z,97.99
2017-05-22T05:23:21.127Z,97.61
2017-05-22T05:24:30.672Z,97.32
2017-05-22T05:25:39.890Z,97.13
2017-05-22T05:26:48.778Z,96.84
2017-05-22T05:27:57.667Z,97.32
2017-05-22T05:29:07.680Z,97.42
2017-05-22T05:30:17.223Z,97.42
2017-05-22T05:31:26.114Z,97.51
2017-05-22T05:32:35.009Z,97.32
2017-05-22T05:33:44.322Z,96.46
2017-05-22T05:34:53.789Z,96.84
2017-05-22T05:36:03.013Z,96.66
2017-05-22T05:37:12.236Z,95.03
2017-05-22T05:38:22.099Z,95.7
2017-05-22T05:39:31.641Z,94.93
2017-05-22T05:40:41.228Z,95.12
2017-05-22T05:41:50.439Z,94.56
2017-05-22T05:42:59.330Z,94.6
2017-05-22T05:44:08.224Z,94.51
2017-05-22T05:45:17.118Z,94.03
2017-05-22T05:46:26.164Z,95.08
2017-05-22T05:47:36.027Z,94.6
2017-05-22T05:48:45.250Z,94.51
2017-05-22T05:49:54.140Z,95.17
2017-05-22T05:51:03.368Z,95.08
2017-05-22T05:52:12.416Z,95.46
2017-05-22T05:53:21.307Z,94.89
2017-05-22T05:54:30.522Z,94.41
2017-05-22T05:55:40.064Z,94.12
2017-05-22T05:56:48.961Z,93.55
2017-05-22T05:57:58.382Z,94.03
2017-05-22T05:59:07.922Z,93.46
2017-05-22T06:00:17.139Z,94.51
2017-05-22T06:01:26.030Z,93.17
2017-05-22T06:02:34.930Z,93.55
2017-05-22T06:03:45.004Z,94.22
2017-05-22T06:04:54.548Z,94.03
2017-05-22T06:06:04.089Z,94.89
2017-05-22T06:07:12.988Z,94.12
2017-05-22T06:08:22.246Z,93.17
2017-05-22T06:09:31.285Z,93.02
2017-05-22T06:10:41.150Z,92.93
2017-05-22T06:11:50.042Z,92.93
2017-05-22T06:12:58.930Z,92.93
2017-05-22T06:14:08.492Z,92.07
2017-05-22T06:15:17.860Z,92.07
2017-05-22T06:16:26.749Z,92.45
2017-05-22T06:17:36.613Z,91.5
2017-05-22T06:18:45.506Z,90.83
2017-05-22T06:19:54.722Z,91.11
2017-05-22T06:21:04.419Z,90.92
2017-05-22T06:22:13.308Z,90.83
2017-05-22T06:23:22.208Z,89.39
2017-05-22T06:24:31.432Z,89.49
2017-05-22T06:25:40.654Z,89.39
2017-05-22T06:26:49.645Z,89.34
2017-05-22T06:27:59.185Z,88.87
2017-05-22T06:29:08.407Z,89.06
2017-05-22T06:30:18.272Z,88.39
2017-05-22T06:31:27.499Z,88.39
2017-05-22T06:32:36.963Z,88.96
2017-05-22T06:33:46.179Z,88.96
2017-05-22T06:34:55.717Z,90.11
2017-05-22T06:36:05.259Z,89.53
2017-05-22T06:37:14.150Z,89.34
2017-05-22T06:38:23.469Z,89.44
2017-05-22T06:39:33.013Z,88.96
2017-05-22T06:40:42.559Z,88.29
2017-05-22T06:41:51.457Z,87.24
2017-05-22T06:43:00.356Z,87.91
2017-05-22T06:44:09.776Z,87.91
2017-05-22T06:45:19.045Z,87.15
2017-05-22T06:46:27.941Z,87.91
2017-05-22T06:47:37.160Z,86.8
2017-05-22T06:48:47.031Z,87.86
2017-05-22T06:49:56.077Z,87.76
2017-05-22T06:51:04.970Z,86.9
2017-05-22T06:52:14.188Z,87.29
2017-05-22T06:53:23.404Z,87.38
2017-05-22T06:54:32.294Z,86.52
2017-05-22T06:55:41.885Z,86.14
2017-05-22T06:56:51.105Z,86.8
2017-05-22T06:58:00.004Z,85.85
2017-05-22T06:59:09.223Z,86.33
2017-05-22T07:00:18.114Z,85.47
2017-05-22T07:01:27.430Z,85.47
2017-05-22T07:02:36.967Z,86.23
2017-05-22T07:03:45.856Z,85.57
2017-05-22T07:04:54.742Z,85.57
2017-05-22T07:06:03.962Z,85.47
2017-05-22T07:07:13.244Z,84.17
2017-05-22T07:08:22.133Z,85.8
2017-05-22T07:09:31.025Z,85.22
2017-05-22T07:10:40.243Z,84.84
2017-05-22T07:11:49.792Z,86.47
2017-05-22T07:12:59.010Z,85.89
2017-05-22T07:14:08.225Z,85.8
2017-05-22T07:15:17.447Z,85.32
2017-05-22T07:16:26.341Z,84.84
2017-05-22T07:17:35.239Z,84.55
2017-05-22T07:18:44.234Z,84.55
2017-05-22T07:19:53.455Z,83.6
2017-05-22T07:21:03.326Z,84.27
2017-05-22T07:22:12.545Z,83.98
2017-05-22T07:23:21.760Z,83.45
2017-05-22T07:24:31.457Z,83.36
2017-05-22T07:25:40.670Z,83.06
2017-05-22T07:26:49.560Z,82.49
2017-05-22T07:27:58.774Z,81.82
2017-05-22T07:29:07.675Z,82.2
2017-05-22T07:30:17.045Z,81.63
2017-05-22T07:31:25.943Z,83.06
2017-05-22T07:32:34.843Z,82.4
2017-05-22T07:33:44.393Z,82.01
2017-05-22T07:34:54.275Z,82.53
2017-05-22T07:36:04.720Z,80.24
2017-05-22T07:37:14.264Z,79.66
2017-05-22T07:38:24.130Z,80.33
2017-05-22T07:39:33.024Z,81.48
2017-05-22T07:40:41.911Z,81.29
2017-05-22T07:41:50.955Z,81.86
2017-05-22T07:43:00.499Z,82.34
2017-05-22T07:44:10.044Z,83.01
2017-05-22T07:45:19.265Z,83.49
2017-05-22T07:46:28.162Z,81.67
2017-05-22T07:47:37.276Z,79.32
2017-05-22T07:48:46.510Z,77.59
2017-05-22T07:49:56.379Z,77.5
2017-05-22T07:51:05.925Z,78.07
2017-05-22T07:52:15.150Z,78.93
2017-05-22T07:53:24.096Z,79.22
2017-05-22T07:54:33.644Z,78.74
2017-05-22T07:55:42.861Z,79.41
2017-05-22T07:56:52.084Z,79.7
2017-05-22T07:58:01.631Z,80.66
2017-05-22T07:59:11.002Z,78.64
2017-05-22T08:00:20.547Z,77.88
2017-05-22T08:01:29.446Z,77.97
2017-05-22T08:02:38.375Z,79.36
2017-05-22T08:03:47.604Z,78.78
2017-05-22T08:04:56.926Z,78.3
2017-05-22T08:06:06.471Z,78.2
2017-05-22T08:07:15.697Z,78.59
2017-05-22T08:08:24.919Z,79.07
2017-05-22T08:09:34.803Z,79.64
2017-05-22T08:10:44.648Z,79.45
2017-05-22T08:11:53.546Z,78.49
2017-05-22T08:13:02.440Z,78.2
2017-05-22T08:14:11.661Z,77.34
2017-05-22T08:15:20.890Z,76.42
2017-05-22T08:16:30.255Z,76.81
2017-05-22T08:17:39.149Z,76.04
2017-05-22T08:18:48.373Z,77.09
2017-05-22T08:19:57.262Z,75.46
2017-05-22T08:21:06.155Z,76.04
2017-05-22T08:22:15.099Z,77
2017-05-22T08:23:24.322Z,77.67
2017-05-22T08:24:33.875Z,78.15
2017-05-22T08:25:43.414Z,77.29
2017-05-22T08:26:52.307Z,75.79
2017-05-22T08:28:01.603Z,75.21
2017-05-22T08:29:10.824Z,73.49
2017-05-22T08:30:19.720Z,73.97
2017-05-22T08:31:28.945Z,74.54
2017-05-22T08:32:37.840Z,74.35
2017-05-22T08:33:46.781Z,73.49
2017-05-22T08:34:55.997Z,73.49
2017-05-22T08:36:05.216Z,73.49
2017-05-22T08:37:14.506Z,73.24
2017-05-22T08:38:23.402Z,74.19
2017-05-22T08:39:32.344Z,74.48
2017-05-22T08:40:41.886Z,74.29
2017-05-22T08:41:50.785Z,73.91
2017-05-22T08:42:59.678Z,71.8
2017-05-22T08:44:08.895Z,72.56
2017-05-22T08:45:18.189Z,70.74
2017-05-22T08:46:27.084Z,70.45
2017-05-22T08:47:36.308Z,71.45
2017-05-22T08:48:45.858Z,70.74
2017-05-22T08:49:55.083Z,69.91
2017-05-22T08:51:04.773Z,70.78
2017-05-22T08:52:13.671Z,70.1
2017-05-22T08:53:22.903Z,68.08
2017-05-22T08:54:31.801Z,67.35
2017-05-22T08:55:41.346Z,66.3
2017-05-22T08:56:50.817Z,67.45
2017-05-22T08:58:00.043Z,68.02
2017-05-22T08:59:09.645Z,66.58
2017-05-22T09:00:19.517Z,66.71
2017-05-22T09:01:28.805Z,65.46
2017-05-22T09:02:38.180Z,65.37
2017-05-22T09:03:47.408Z,64.37
2017-05-22T09:04:56.952Z,63.22
2017-05-22T09:06:06.497Z,64.18
2017-05-22T09:07:15.394Z,61.23
2017-05-22T09:08:24.292Z,62.29
2017-05-22T09:09:33.185Z,61.71
2017-05-22T09:10:42.089Z,62.38
2017-05-22T09:11:51.322Z,60.66
2017-05-22T09:13:00.547Z,59.02
2017-05-22T09:14:10.575Z,58.15
2017-05-22T09:15:20.125Z,58.54
2017-05-22T09:16:29.340Z,56.33
2017-05-22T09:17:38.567Z,56.52
2017-05-22T09:18:47.794Z,56.26
2017-05-22T09:19:57.493Z,55.88
2017-05-22T09:21:07.371Z,56.55
2017-05-22T09:22:16.912Z,56.36
2017-05-22T09:23:25.812Z,56.65
2017-05-22T09:24:35.037Z,56.36
2017-05-22T09:25:44.370Z,53.88
2017-05-22T09:26:53.914Z,56
2017-05-22T09:28:03.136Z,55.01
2017-05-22T09:29:12.359Z,55.01
2017-05-22T09:30:21.257Z,55.04
2017-05-22T09:31:30.306Z,56.38
2017-05-22T09:32:39.198Z,56.58
2017-05-22T09:33:49.069Z,56.58
2017-05-22T09:34:58.625Z,55.13
2017-05-22T09:36:07.521Z,51.09
2017-05-22T09:37:16.893Z,51.86
2017-05-22T09:38:26.116Z,50.42
2017-05-22T09:39:35.672Z,50.32
2017-05-22T09:40:44.615Z,47.85
2017-05-22T09:41:53.523Z,47.24
2017-05-22T09:43:02.719Z,49.55
2017-05-22T09:44:12.323Z,50.42
2017-05-22T09:45:21.217Z,49.58
2017-05-22T09:46:30.113Z,50.35
2017-05-22T09:47:39.013Z,50.25
2017-05-22T09:48:48.438Z,48.33
2017-05-22T09:49:57.662Z,49.32
2017-05-22T09:51:06.881Z,47.77
2017-05-22T09:52:16.100Z,48.43
2017-05-22T09:53:24.995Z,46.59
2017-05-22T09:54:34.200Z,46.31
2017-05-22T09:55:43.423Z,46.59
2017-05-22T09:56:52.644Z,48.52
2017-05-22T09:58:01.540Z,46.69
2017-05-22T09:59:10.772Z,47.08
2017-05-22T10:00:20.244Z,47.49
2017-05-22T10:01:29.465Z,47.67
2017-05-22T10:02:38.371Z,45.75
2017-05-22T10:03:47.593Z,44.79
2017-05-22T10:04:56.817Z,46.06
2017-05-22T10:06:06.391Z,44.9
2017-05-22T10:07:15.296Z,44.79
2017-05-22T10:08:24.521Z,44.69
2017-05-22T10:09:33.740Z,45.65
2017-05-22T10:10:42.638Z,42.38
2017-05-22T10:11:52.236Z,42.3
2017-05-22T10:13:01.135Z,42.79
2017-05-22T10:14:10.685Z,41.92
2017-05-22T10:15:19.902Z,41.24
2017-05-22T10:16:29.131Z,43.27
2017-05-22T10:17:38.728Z,43.65
2017-05-22T10:18:47.629Z,44.45
2017-05-22T10:19:56.850Z,42.3
2017-05-22T10:21:06.068Z,42.42
2017-05-22T10:22:14.973Z,42.42
2017-05-22T10:23:24.017Z,41.84
2017-05-22T10:24:32.913Z,42.02
2017-05-22T10:25:41.809Z,43.94
2017-05-22T10:26:51.361Z,43.65
2017-05-22T10:28:00.579Z,44.04
2017-05-22T10:29:09.953Z,44.62
2017-05-22T10:30:19.172Z,43.29
2017-05-22T10:31:28.388Z,43.19
2017-05-22T10:32:37.613Z,43.96
2017-05-22T10:33:47.157Z,42.61
2017-05-22T10:34:56.056Z,42.52
2017-05-22T10:36:05.607Z,41.94
2017-05-22T10:37:14.506Z,40.59
2017-05-22T10:38:23.403Z,42.23
2017-05-22T10:39:32.302Z,43.19
2017-05-22T10:40:41.348Z,43.48
2017-05-22T10:41:50.246Z,43.77
2017-05-22T10:42:59.142Z,41.65
2017-05-22T10:44:08.688Z,40.99
2017-05-22T10:45:17.913Z,42.25
2017-05-22T10:46:27.164Z,41.57
2017-05-22T10:47:36.393Z,42.15
2017-05-22T10:48:46.268Z,43.12
2017-05-22T10:49:55.816Z,43.12
2017-05-22T10:51:05.372Z,43.38
2017-05-22T10:52:14.649Z,41.55
2017-05-22T10:53:23.547Z,42.23
2017-05-22T10:54:32.445Z,41.46
2017-05-22T10:55:41.342Z,42.42
2017-05-22T10:56:50.891Z,43.19
2017-05-22T10:58:00.123Z,43.29
2017-05-22T10:59:09.021Z,43.87
2017-05-22T11:00:18.245Z,43.77
2017-05-22T11:01:27.796Z,44.64
2017-05-22T11:02:37.351Z,43.87
2017-05-22T11:03:46.911Z,44.64
2017-05-22T11:04:56.137Z,44.73
2017-05-22T11:06:05.686Z,43.48
2017-05-22T11:07:14.581Z,42.44
2017-05-22T11:08:23.801Z,42.44
2017-05-22T11:09:32.846Z,43.41
2017-05-22T11:10:42.073Z,41.98
2017-05-22T11:11:51.295Z,41.78
2017-05-22T11:13:00.195Z,42.46
2017-05-22T11:14:09.419Z,41.6
2017-05-22T11:15:19.042Z,41.78
2017-05-22T11:16:28.264Z,41.69
2017-05-22T11:17:37.162Z,41.78
2017-05-22T11:18:46.715Z,40.05
2017-05-22T11:19:55.624Z,40.15
2017-05-22T11:21:04.849Z,41.5
2017-05-22T11:22:13.755Z,40.24
2017-05-22T11:23:22.655Z,40.92
2017-05-22T11:24:32.537Z,39.47
2017-05-22T11:25:41.441Z,40.53
2017-05-22T11:26:50.542Z,40.72
2017-05-22T11:27:59.444Z,39.57
2017-05-22T11:29:08.669Z,39.86
2017-05-22T11:30:17.567Z,39.97
2017-05-22T11:31:26.462Z,38.71
2017-05-22T11:32:35.760Z,39.18
2017-05-22T11:33:44.985Z,38.91
2017-05-22T11:34:54.537Z,39.2
2017-05-22T11:36:03.437Z,37.56
2017-05-22T11:37:12.676Z,37.27
2017-05-22T11:38:22.101Z,36.88
2017-05-22T11:39:31.327Z,37.65
2017-05-22T11:40:40.557Z,38.04
2017-05-22T11:41:49.456Z,39.59
2017-05-22T11:42:58.357Z,38.16
2017-05-22T11:44:08.163Z,37.96
2017-05-22T11:45:17.393Z,39.03
2017-05-22T11:46:26.615Z,39.03
2017-05-22T11:47:35.581Z,38.18
2017-05-22T11:48:45.133Z,38.95
2017-05-22T11:49:54.846Z,39.53
2017-05-22T11:51:04.401Z,39.04
2017-05-22T11:52:13.627Z,37.88
2017-05-22T11:53:22.525Z,38.46
2017-05-22T11:54:32.080Z,37.04
2017-05-22T11:55:41.029Z,36.84
2017-05-22T11:56:50.256Z,36.26
2017-05-22T11:57:59.159Z,36.74
2017-05-22T11:59:08.454Z,37.05
2017-05-22T12:00:17.357Z,38.31
2017-05-22T12:01:26.357Z,37.63
2017-05-22T12:02:35.260Z,37.15
2017-05-22T12:03:44.819Z,36.58
2017-05-22T12:04:54.052Z,36.1
2017-05-22T12:06:03.946Z,36.66
2017-05-22T12:07:13.230Z,36.47
2017-05-22T12:08:22.787Z,36.98
2017-05-22T12:09:32.344Z,36.49
2017-05-22T12:10:41.904Z,35.91
2017-05-22T12:11:51.134Z,35.52
2017-05-22T12:13:00.195Z,34.75
2017-05-22T12:14:09.754Z,35.33
2017-05-22T12:15:18.994Z,36.08
2017-05-22T12:16:28.229Z,36.08
2017-05-22T12:17:37.136Z,37.15
2017-05-22T12:18:46.668Z,36.66
2017-05-22T12:19:55.579Z,37.07
2017-05-22T12:21:04.814Z,35.54
2017-05-22T12:22:14.047Z,35.83
2017-05-22T12:23:23.289Z,34.86
2017-05-22T12:24:32.305Z,35.83
2017-05-22T12:25:41.214Z,34.55
2017-05-22T12:26:50.448Z,34.86
2017-05-22T12:28:00.007Z,34.77
2017-05-22T12:29:09.251Z,33.6
2017-05-22T12:30:18.218Z,34.57
2017-05-22T12:31:27.452Z,34.88
2017-05-22T12:32:36.404Z,34.96
2017-05-22T12:33:46.622Z,34.39
2017-05-22T12:34:55.858Z,35.07
2017-05-22T12:36:05.577Z,33.62
2017-05-22T12:37:14.492Z,33.51
2017-05-22T12:38:23.408Z,33.42
2017-05-22T12:39:32.331Z,32.84
2017-05-22T12:40:41.247Z,35.07
2017-05-22T12:41:50.419Z,34.59
2017-05-22T12:42:59.339Z,33.81
2017-05-22T12:44:08.266Z,33.73
2017-05-22T12:45:17.514Z,32.86
2017-05-22T12:46:26.434Z,32.09
2017-05-22T12:47:35.828Z,32.18
2017-05-22T12:48:45.078Z,32.76
2017-05-22T12:49:54.320Z,32.78
2017-05-22T12:51:03.297Z,32.39
2017-05-22T12:52:12.859Z,31.7
2017-05-22T12:53:22.389Z,31.41
2017-05-22T12:54:32.283Z,31.5
2017-05-22T12:55:41.197Z,31.5
2017-05-22T12:56:50.758Z,31.02
2017-05-22T12:57:59.673Z,31.99
2017-05-22T12:59:09.063Z,30.15
2017-05-22T13:00:18.306Z,30.16
2017-05-22T13:01:27.224Z,30.74
2017-05-22T13:02:36.147Z,33.75
2017-05-22T13:03:45.724Z,31.92
2017-05-22T13:04:55.542Z,30.66
2017-05-22T13:06:04.805Z,30.76
2017-05-22T13:07:14.054Z,30.57
2017-05-22T13:08:22.979Z,30.37
2017-05-22T13:09:32.252Z,29.69
2017-05-22T13:10:41.672Z,30.19
2017-05-22T13:11:51.253Z,30.38
2017-05-22T13:13:00.173Z,30.08
2017-05-22T13:14:09.742Z,31.26
2017-05-22T13:15:18.668Z,31.65
2017-05-22T13:16:27.973Z,32.5
2017-05-22T13:17:37.588Z,32.21
2017-05-22T13:18:47.160Z,30.47
2017-05-22T13:19:56.776Z,30.48
2017-05-22T13:21:05.720Z,32.91
2017-05-22T13:22:14.683Z,31.65
2017-05-22T13:23:23.599Z,29.71
2017-05-22T13:24:32.844Z,29.33
2017-05-22T13:25:41.782Z,30.01
2017-05-22T13:26:51.040Z,28.45
2017-05-22T13:28:00.598Z,27.58
2017-05-22T13:29:09.529Z,28.94
2017-05-22T13:30:18.508Z,29.8
2017-05-22T13:31:27.425Z,30.77
2017-05-22T13:32:36.669Z,30.19
2017-05-22T13:33:46.816Z,29.32
2017-05-22T13:34:56.061Z,29.72
2017-05-22T13:36:06.023Z,29.72
2017-05-22T13:37:15.604Z,29.25
2017-05-22T13:38:25.210Z,29.52
2017-05-22T13:39:34.855Z,28.94
2017-05-22T13:40:44.095Z,28.94
2017-05-22T13:41:53.341Z,28.83
2017-05-22T13:43:02.593Z,29.91
2017-05-22T13:44:11.871Z,28.85
2017-05-22T13:45:21.168Z,28.07
2017-05-22T13:46:30.087Z,28.96
2017-05-22T13:47:39.337Z,28.66
2017-05-22T13:48:48.586Z,29.25
2017-05-22T13:49:57.511Z,28.38
2017-05-22T13:51:06.905Z,29.15
2017-05-22T13:52:16.150Z,28.66
2017-05-22T13:53:25.394Z,28.08
2017-05-22T13:54:34.314Z,28.96
2017-05-22T13:55:43.231Z,28.78
2017-05-22T13:56:52.301Z,28.58
2017-05-22T13:58:01.227Z,29.06
2017-05-22T13:59:10.805Z,29.46
2017-05-22T14:00:21.031Z,28.2
2017-05-22T14:01:29.971Z,26.86
2017-05-22T14:02:39.095Z,27.16
2017-05-22T14:03:48.032Z,26.2
2017-05-22T14:04:57.608Z,26.1
2017-05-22T14:06:06.859Z,27.76
2017-05-22T14:07:16.108Z,27.18
2017-05-22T14:08:25.512Z,26.98
2017-05-22T14:09:35.087Z,26.2
2017-05-22T14:10:44.336Z,26.1
2017-05-22T14:11:53.582Z,25.62
2017-05-22T14:13:02.830Z,26.48
2017-05-22T14:14:11.854Z,25.7
2017-05-22T14:15:21.105Z,25.99
2017-05-22T14:16:30.039Z,26.68
2017-05-22T14:17:38.960Z,25.6
2017-05-22T14:18:48.206Z,25.91
2017-05-22T14:19:58.262Z,25.71
2017-05-22T14:21:07.509Z,25.71
2017-05-22T14:22:16.431Z,26.9
2017-05-22T14:23:25.353Z,25.34
2017-05-22T14:24:34.930Z,24.56
2017-05-22T14:25:44.563Z,24.76
2017-05-22T14:26:53.485Z,25.52
2017-05-22T14:28:02.724Z,26.1
2017-05-22T14:29:11.967Z,25.7
2017-05-22T14:30:21.539Z,26.86
2017-05-22T14:31:30.613Z,26.75
2017-05-22T14:32:40.179Z,26.94
2017-05-22T14:33:50.079Z,26.17
2017-05-22T14:34:59.645Z,26.46
2017-05-22T14:36:08.558Z,26.17
2017-05-22T14:37:17.951Z,25.98
2017-05-22T14:38:26.866Z,27.05
2017-05-22T14:39:36.433Z,27.14
2017-05-22T14:40:45.676Z,28.59
2017-05-22T14:41:54.920Z,27.73
2017-05-22T14:43:03.885Z,28.04
2017-05-22T14:44:13.467Z,28.63
2017-05-22T14:45:23.039Z,29.03
2017-05-22T14:46:32.362Z,27.16
2017-05-22T14:47:41.609Z,26.97
2017-05-22T14:48:51.010Z,26.2
2017-05-22T14:50:00.912Z,27.97
2017-05-22T14:51:10.155Z,26.41
2017-05-22T14:52:19.111Z,25.73
2017-05-22T14:53:28.361Z,25.53